Time;durP1;ratioP1;P1;durP2;ratioP2;P2;SDS_P1;SDS_P2;PMS_P1;PMS_P2;Temp;Humidity;BMP_temperature;BMP_pressure;BME280_temperature;BME280_humidity;BME280_pressure;Samples;Min_cycle;Max_cycle;Signal;HPM_P1;HPM_P2
2022/08/18 00:01:31;;;;;;;;;6.25;6.25;;;;;26.58;46.44;100506.91;146601;664;45914;-69
2022/08/18 00:04:26;;;;;;;;;7.25;6.25;;;;;26.54;45.97;100518.47;146608;668;45020;-69
2022/08/18 00:07:41;;;;;;;;;10.75;8.00;;;;;26.47;46.09;100509.72;146603;675;45915;-69
2022/08/18 00:10:38;;;;;;;;;5.00;5.00;;;;;26.45;46.30;100506.22;146603;595;46010;-68
2022/08/18 00:13:41;;;;;;;;;8.75;6.50;;;;;26.45;46.11;100510.66;146602;619;45914;-67
2022/08/18 00:16:33;;;;;;;;;6.50;6.50;;;;;26.42;46.43;100508.94;146608;563;45020;-68
2022/08/18 00:19:32;;;;;;;;;8.00;6.25;;;;;26.36;46.32;100509.03;146603;668;45915;-68
2022/08/18 00:22:30;;;;;;;;;8.00;8.00;;;;;26.26;46.62;100508.31;146607;642;45020;-68
2022/08/18 00:25:24;;;;;;;;;6.25;6.25;;;;;26.19;47.73;100514.63;146603;571;45914;-69
2022/08/18 00:28:27;;;;;;;;;6.00;6.00;;;;;26.10;47.17;100524.53;146607;676;45021;-70
2022/08/18 00:31:27;;;;;;;;;8.00;7.00;;;;;26.06;47.80;100525.47;146603;573;45911;-69
2022/08/18 00:34:29;;;;;;;;;8.00;5.75;;;;;26.02;47.45;100520.22;146605;572;45021;-70
2022/08/18 00:37:27;;;;;;;;;7.25;7.25;;;;;26.02;47.82;100525.53;146602;611;46012;-70
2022/08/18 00:40:36;;;;;;;;;6.00;5.00;;;;;25.98;47.72;100520.25;146606;563;45020;-70
2022/08/18 00:44:03;;;;;;;;;6.25;6.25;;;;;25.98;46.51;100517.59;146603;693;45912;-69
2022/08/18 00:47:11;;;;;;;;;8.00;7.50;;;;;25.07;46.87;100350.75;146607;630;45020;-70
2022/08/18 00:50:27;;;;;;;;;7.25;6.50;;;;;26.14;46.56;100519.16;146601;570;46013;-69
2022/08/18 00:53:40;;;;;;;;;7.25;6.00;;;;;25.30;46.41;100358.44;146606;639;46010;-71
2022/08/18 00:56:39;;;;;;;;;4.75;4.75;;;;;26.30;46.85;100518.91;146602;712;46914;-70
2022/08/18 00:59:48;;;;;;;;;8.25;8.25;;;;;26.26;46.33;100515.37;146607;564;45021;-70
2022/08/18 01:03:19;;;;;;;;;6.50;6.50;;;;;25.23;46.15;100340.84;146603;707;45913;-70
2022/08/18 01:07:06;;;;;;;;;7.75;7.75;;;;;26.17;46.65;100505.81;146609;691;45021;-69
2022/08/18 01:10:14;;;;;;;;;;;;;;;;;;;;;
2022/08/18 01:13:37;;;;;;;;;5.75;5.75;;;;;25.10;47.41;100343.62;146604;718;46915;-70
2022/08/18 01:23:44;;;;;;;;;10.50;8.00;;;;;25.01;47.26;100335.81;146604;612;45909;-69
2022/08/18 01:26:48;;;;;;;;;6.25;6.25;;;;;25.93;47.71;100496.44;146604;659;46010;-70
2022/08/18 01:29:49;;;;;;;;;6.75;6.75;;;;;25.85;48.42;100500.97;146604;678;45916;-69
2022/08/18 01:32:55;;;;;;;;;7.00;7.00;;;;;25.76;48.00;100503.75;146608;578;46014;-71
2022/08/18 01:36:16;;;;;;;;;6.00;4.75;;;;;25.69;48.24;100502.94;146603;570;46012;-70
2022/08/18 01:39:25;;;;;;;;;6.25;5.50;;;;;25.66;47.33;100491.50;146607;666;45020;-69
2022/08/18 01:42:38;;;;;;;;;9.00;6.25;;;;;24.73;48.00;100330.00;146604;595;45914;-71
2022/08/18 01:45:33;;;;;;;;;6.00;6.00;;;;;25.66;48.45;100495.03;146606;569;45020;-70
2022/08/18 01:48:31;;;;;;;;;7.25;6.75;;;;;25.63;48.96;100487.09;146602;571;45915;-70
2022/08/18 01:51:25;;;;;;;;;8.00;6.50;;;;;25.58;48.85;100489.84;146608;570;45049;-70
2022/08/18 01:54:29;;;;;;;;;8.25;7.25;;;;;25.54;48.98;100490.75;146603;655;45914;-68
2022/08/18 01:57:29;;;;;;;;;6.00;6.00;;;;;25.49;48.91;100482.00;146604;727;46010;-70
2022/08/18 02:00:28;;;;;;;;;6.00;6.00;;;;;25.47;47.91;100485.56;146603;586;45913;-69
2022/08/18 02:03:36;;;;;;;;;;;;;;;;;;;;;
2022/08/18 02:06:33;;;;;;;;;8.00;6.50;;;;;25.51;48.70;100480.22;146600;632;46018;-70
2022/08/18 02:09:47;;;;;;;;;;;;;;;;;;;;;
2022/08/18 02:12:57;;;;;;;;;6.50;6.50;;;;;25.55;48.72;100481.94;146632;686;45911;-67
2022/08/18 02:16:06;;;;;;;;;5.50;4.75;;;;;25.56;48.25;100488.09;146630;621;45014;-68
2022/08/18 02:19:11;;;;;;;;;5.50;5.50;;;;;25.61;47.48;100480.97;146630;578;45012;-67
2022/08/18 02:22:11;;;;;;;;;8.00;6.50;;;;;25.65;48.33;100479.12;146632;607;45020;-67
2022/08/18 02:25:24;;;;;;;;;7.00;7.00;;;;;24.63;47.52;100307.16;146631;692;45012;-67
2022/08/18 02:28:23;;;;;;;;;7.33;5.00;;;;;25.54;48.25;100468.66;146632;587;45010;-67
2022/08/18 02:31:39;;;;;;;;;7.25;7.00;;;;;25.49;48.68;100471.37;146630;569;44912;-68
2022/08/18 02:34:45;;;;;;;;;7.75;7.00;;;;;25.45;48.45;100469.69;146632;593;44023;-69
2022/08/18 02:37:42;;;;;;;;;5.00;5.00;;;;;25.38;48.57;100470.66;146630;569;45012;-69
2022/08/18 02:40:40;;;;;;;;;8.67;6.67;;;;;25.32;48.81;100474.25;146632;594;45015;-67
2022/08/18 02:43:40;;;;;;;;;6.50;6.25;;;;;25.29;48.45;100469.00;146630;675;45010;-67
2022/08/18 02:46:42;;;;;;;;;8.25;7.25;;;;;25.30;48.63;100469.91;146631;583;45010;-66
2022/08/18 02:49:37;;;;;;;;;6.75;6.75;;;;;25.30;48.63;100470.75;146628;623;44914;-65
2022/08/18 02:52:34;;;;;;;;;5.00;5.00;;;;;25.34;48.72;100477.78;146634;571;45010;-66
2022/08/18 02:55:28;;;;;;;;;8.50;6.25;;;;;25.33;48.53;100477.81;146632;613;45010;-67
2022/08/18 02:58:32;;;;;;;;;5.75;5.00;;;;;25.34;48.94;100483.09;146632;641;45014;-67
2022/08/18 03:01:34;;;;;;;;;6.00;6.00;;;;;25.32;48.57;100471.59;146631;571;44912;-66
2022/08/18 03:04:46;;;;;;;;;9.50;8.50;;;;;25.27;49.11;100469.94;146630;567;45010;-67
2022/08/18 03:07:44;;;;;;;;;8.25;7.75;;;;;25.25;49.38;100477.91;146630;581;45912;-67
2022/08/18 03:10:50;;;;;;;;;10.75;8.50;;;;;24.35;48.56;100311.91;146624;671;45021;-67
2022/08/18 03:13:55;;;;;;;;;7.25;7.25;;;;;25.31;49.04;100480.47;146600;638;46014;-69
2022/08/18 03:16:54;;;;;;;;;8.50;6.00;;;;;25.29;48.76;100476.09;146606;699;45020;-68
2022/08/18 03:20:02;;;;;;;;;9.50;9.50;;;;;25.32;48.55;100474.25;146602;570;46030;-68
2022/08/18 03:23:00;;;;;;;;;7.25;7.00;;;;;25.32;48.02;100481.34;146604;694;46010;-68
2022/08/18 03:26:00;;;;;;;;;10.25;9.25;;;;;25.33;48.31;100485.78;146603;623;45912;-68
2022/08/18 03:28:58;;;;;;;;;7.75;6.00;;;;;25.35;48.40;100482.19;146605;571;46010;-68
2022/08/18 03:32:00;;;;;;;;;9.00;7.75;;;;;25.41;48.66;100486.53;146603;686;45912;-68
2022/08/18 03:35:04;;;;;;;;;8.50;8.25;;;;;25.43;47.42;100483.88;146606;592;45021;-68
2022/08/18 03:38:18;;;;;;;;;9.50;8.50;;;;;25.49;47.69;100492.62;146602;577;46012;-69
2022/08/18 03:41:15;;;;;;;;;9.50;7.75;;;;;25.53;48.18;100482.84;146606;590;46014;-67
2022/08/18 03:44:07;;;;;;;;;8.00;7.75;;;;;25.59;47.36;100498.69;146602;569;46012;-67
2022/08/18 03:47:02;;;;;;;;;9.00;8.00;;;;;25.64;47.00;100495.94;146604;586;45021;-67
2022/08/18 03:49:58;;;;;;;;;8.75;7.25;;;;;25.71;45.99;100503.81;146603;658;45913;-67
2022/08/18 03:52:58;;;;;;;;;8.25;8.25;;;;;25.85;46.27;100513.38;146607;611;45050;-67
2022/08/18 03:55:52;;;;;;;;;6.00;6.00;;;;;25.96;46.28;100499.06;146602;638;46017;-66
2022/08/18 03:59:22;;;;;;;;;8.00;8.00;;;;;25.05;45.13;100326.06;146605;618;45020;-68
2022/08/18 04:02:18;;;;;;;;;11.50;10.00;;;;;26.15;46.17;100499.62;146602;582;45910;-67
2022/08/18 04:05:13;;;;;;;;;8.00;8.00;;;;;26.21;45.34;100507.50;146607;605;45021;-67
2022/08/18 04:08:12;;;;;;;;;7.25;5.50;;;;;26.27;44.49;100499.44;146603;670;45913;-67
2022/08/18 04:11:04;;;;;;;;;6.50;6.50;;;;;26.37;44.49;100513.44;146607;637;46010;-68
2022/08/18 04:13:59;;;;;;;;;7.25;7.25;;;;;26.50;44.45;100506.16;146602;671;46012;-66
2022/08/18 04:16:51;;;;;;;;;6.75;6.75;;;;;26.62;44.68;100511.25;146606;637;45021;-66
2022/08/18 04:19:44;;;;;;;;;7.50;7.25;;;;;26.72;43.83;100522.59;146600;569;47031;-66
2022/08/18 04:22:55;;;;;;;;;6.75;6.75;;;;;25.80;44.55;100354.97;146606;628;45020;-68
2022/08/18 04:26:04;;;;;;;;;6.00;5.75;;;;;26.77;44.18;100523.41;146601;576;46014;-67
2022/08/18 04:29:02;;;;;;;;;9.25;9.00;;;;;26.76;44.66;100512.78;146608;710;45020;-67
2022/08/18 04:31:57;;;;;;;;;9.50;7.25;;;;;26.78;43.97;100524.28;146603;587;45917;-68
2022/08/18 04:34:55;;;;;;;;;9.75;6.75;;;;;26.84;44.43;100518.84;146606;709;46010;-67
2022/08/18 04:37:50;;;;;;;;;1.75;0.00;;;;;26.94;44.18;100521.28;146601;599;46012;-67
2022/08/18 04:40:54;;;;;;;;;8.00;7.25;;;;;27.12;42.94;100513.84;146605;700;46010;-66
2022/08/18 04:43:51;;;;;;;;;8.25;7.25;;;;;27.28;42.45;100514.44;146599;573;46010;-68
2022/08/18 04:46:57;;;;;;;;;9.50;8.00;;;;;26.56;42.72;100369.56;146604;571;45021;-68
2022/08/18 04:49:52;;;;;;;;;7.50;6.75;;;;;27.67;43.39;100528.69;146603;579;45914;-68
2022/08/18 04:56:15;;;;;;;;;7.00;6.00;;;;;27.11;43.72;100368.41;146602;744;45912;-67
2022/08/18 04:59:15;;;;;;;;;8.00;8.00;;;;;28.04;44.01;100518.09;146606;696;45020;-67
2022/08/18 05:02:18;;;;;;;;;10.75;8.00;;;;;28.20;42.59;100510.59;146600;616;46014;-68
2022/08/18 05:05:28;;;;;;;;;;;;;;;;;;;;;
2022/08/18 05:08:41;;;;;;;;;8.00;8.00;;;;;28.63;41.88;100513.97;146603;564;45912;-67
2022/08/18 05:11:45;;;;;;;;;7.00;6.25;;;;;28.78;41.28;100526.91;146607;575;46010;-70
2022/08/18 05:14:46;;;;;;;;;8.75;7.00;;;;;28.92;41.40;100516.72;146604;569;45914;-68
2022/08/18 05:17:45;;;;;;;;;6.75;4.50;;;;;29.06;41.45;100519.03;146605;646;45021;-69
2022/08/18 05:20:42;;;;;;;;;7.00;7.00;;;;;29.25;41.58;100511.37;146602;595;45914;-69
2022/08/18 05:23:41;;;;;;;;;7.50;6.75;;;;;29.49;41.63;100530.28;146607;667;46010;-69
2022/08/18 05:26:35;;;;;;;;;7.50;7.50;;;;;29.71;40.31;100527.84;146602;608;45915;-69
2022/08/18 05:29:35;;;;;;;;;8.50;8.50;;;;;29.93;40.64;100528.91;146607;666;45020;-68
2022/08/18 05:32:52;;;;;;;;;10.00;7.50;;;;;30.10;40.21;100526.59;146601;575;46010;-69
2022/08/18 05:36:02;;;;;;;;;9.50;8.50;;;;;30.18;40.87;100526.31;146606;606;46010;-68
2022/08/18 05:39:28;;;;;;;;;7.50;7.00;;;;;29.41;40.13;100384.47;146603;608;45915;-68
2022/08/18 05:42:24;;;;;;;;;9.25;7.75;;;;;30.41;40.24;100538.13;146605;716;45022;-68
2022/08/18 05:45:35;;;;;;;;;8.50;7.00;;;;;30.48;39.32;100545.87;146603;696;45914;-68
2022/08/18 05:48:34;;;;;;;;;10.75;8.75;;;;;30.51;39.52;100547.56;146604;684;45021;-70
2022/08/18 05:51:42;;;;;;;;;13.25;11.25;;;;;30.63;39.53;100554.31;146601;569;45914;-70
2022/08/18 05:58:39;;;;;;;;;12.75;11.25;;;;;30.82;38.79;100545.59;146601;565;45911;-68
2022/08/18 06:01:50;;;;;;;;;11.50;10.50;;;;;30.86;38.97;100548.16;146602;580;46010;-69
2022/08/18 06:05:01;;;;;;;;;16.75;12.75;;;;;30.84;39.41;100556.25;146600;590;46012;-70
2022/08/18 06:08:08;;;;;;;;;12.75;10.25;;;;;30.79;39.73;100553.75;146607;570;45021;-71
2022/08/18 06:11:14;;;;;;;;;9.00;9.00;;;;;29.79;39.39;100409.09;146603;607;45912;-68
2022/08/18 06:14:15;;;;;;;;;11.00;10.25;;;;;30.66;40.02;100571.12;146604;619;46010;-69
2022/08/18 06:17:52;;;;;;;;;10.00;9.75;;;;;30.60;40.19;100572.22;146601;571;46012;-69
2022/08/18 06:21:36;;;;;;;;;6.50;6.50;;;;;29.68;39.90;100419.25;146608;565;45020;-70
2022/08/18 06:25:00;;;;;;;;;10.75;8.00;;;;;30.56;40.18;100578.59;146602;654;45913;-68
2022/08/18 06:28:19;;;;;;;;;13.25;10.75;;;;;30.64;40.25;100580.13;146606;672;45020;-74
2022/08/18 06:31:32;;;;;;;;;9.50;7.50;;;;;30.67;39.42;100575.53;146602;664;45912;-72
2022/08/18 06:35:28;;;;;;;;;8.25;8.00;;;;;29.89;39.55;100433.72;146609;595;45020;-73
2022/08/18 06:39:03;;;;;;;;;10.50;9.50;;;;;30.84;39.07;100585.69;146600;580;46013;-74
2022/08/18 06:41:58;;;;;;;;;9.25;8.25;;;;;30.94;38.48;100580.91;146605;584;46026;-77
2022/08/18 06:45:01;;;;;;;;;9.75;7.50;;;;;31.03;38.47;100581.47;146602;579;46016;-76
2022/08/18 06:48:09;;;;;;;;;9.00;8.25;;;;;31.13;38.83;100594.50;146605;563;46010;-75
2022/08/18 06:51:15;;;;;;;;;9.75;7.75;;;;;31.23;38.82;100590.56;146602;589;46012;-76
2022/08/18 06:54:56;;;;;;;;;;;;;;;;;;;;;
2022/08/18 06:58:05;;;;;;;;;9.50;9.50;;;;;31.53;38.47;100580.56;146602;598;45911;-75
2022/08/18 07:01:15;;;;;;;;;9.00;7.25;;;;;30.75;38.51;100428.94;146609;629;45021;-75
2022/08/18 07:04:35;;;;;;;;;9.50;9.00;;;;;31.81;38.32;100582.16;146602;626;46014;-73
2022/08/18 07:07:52;;;;;;;;;9.25;6.50;;;;;32.00;37.36;100585.91;146606;585;45021;-74
2022/08/18 07:10:51;;;;;;;;;7.00;5.75;;;;;32.16;37.12;100578.12;146603;602;45913;-76
2022/08/18 07:13:45;;;;;;;;;9.75;8.50;;;;;32.32;36.73;100576.53;146605;563;45020;-74
2022/08/18 07:16:42;;;;;;;;;10.00;9.25;;;;;32.49;35.79;100581.22;146603;609;45913;-74
2022/08/18 07:19:39;;;;;;;;;13.00;11.25;;;;;32.68;36.67;100581.34;146603;666;46010;-73
2022/08/18 07:22:34;;;;;;;;;9.25;9.25;;;;;32.88;34.93;100577.78;146603;586;45914;-76
2022/08/18 07:25:54;;;;;;;;;8.75;8.75;;;;;33.14;35.61;100578.47;146605;564;45021;-75
2022/08/18 07:29:17;;;;;;;;;7.00;7.00;;;;;33.39;35.18;100584.47;146601;627;46012;-76
2022/08/18 07:32:25;;;;;;;;;9.00;6.00;;;;;33.71;35.37;100583.03;146606;573;45037;-76
2022/08/18 07:35:51;;;;;;;;;8.75;8.00;;;;;33.98;34.72;100577.25;146602;695;45914;-75
2022/08/18 07:39:09;;;;;;;;;7.25;7.00;;;;;33.37;35.07;100425.12;146607;625;45021;-75
2022/08/18 07:42:51;;;;;;;;;61.00;45.75;;;;;33.76;33.89;100448.34;146602;569;45912;-77
2022/08/18 07:45:53;;;;;;;;;43.25;34.00;;;;;34.85;33.09;100581.00;146606;624;45021;-76
2022/08/18 07:48:48;;;;;;;;;19.75;17.50;;;;;35.13;32.80;100580.44;146601;628;45912;-77
2022/08/18 07:51:55;;;;;;;;;17.25;15.75;;;;;35.38;32.93;100579.13;146605;574;45028;-77
2022/08/18 07:55:19;;;;;;;;;9.25;9.25;;;;;35.59;33.25;100577.13;146602;581;45913;-76
2022/08/18 07:59:04;;;;;;;;;9.25;9.25;;;;;34.98;33.76;100441.13;146605;569;45022;-76
2022/08/18 08:02:31;;;;;;;;;8.25;8.00;;;;;35.97;32.59;100577.66;146601;566;46012;-78
2022/08/18 08:05:47;;;;;;;;;8.00;7.50;;;;;36.20;32.70;100578.19;146607;628;45028;-77
2022/08/18 08:09:33;;;;;;;;;9.50;8.00;;;;;36.31;32.36;100586.53;146601;654;46012;-77
2022/08/18 08:13:12;;;;;;;;;8.00;7.00;;;;;35.65;32.24;100435.69;146633;630;45010;-78
2022/08/18 08:17:08;;;;;;;;;8.25;7.00;;;;;35.73;32.43;100425.28;146629;605;45013;-75
2022/08/18 08:20:34;;;;;;;;;7.00;6.25;;;;;36.83;31.59;100577.22;146632;620;44020;-77
2022/08/18 08:24:26;;;;;;;;;11.00;10.00;;;;;36.17;32.05;100433.50;146627;603;46010;-79
2022/08/18 08:28:01;;;;;;;;;5.50;5.50;;;;;36.35;31.01;100442.31;146631;724;44908;-78
2022/08/18 08:31:36;;;;;;;;;8.25;7.75;;;;;37.11;30.15;100571.03;146625;737;45913;-77
2022/08/18 08:34:50;;;;;;;;;7.25;6.50;;;;;37.16;29.05;100567.03;146631;687;44912;-78
2022/08/18 08:38:06;;;;;;;;;6.00;4.75;;;;;37.28;31.20;100576.22;146629;569;44915;-80
2022/08/18 08:41:18;;;;;;;;;8.00;8.00;;;;;37.36;28.94;100576.63;146633;589;44020;-78
2022/08/18 08:45:09;;;;;;;;;6.00;6.00;;;;;36.65;30.21;100450.41;146631;604;45916;-79
2022/08/18 08:48:35;;;;;;;;;5.25;5.00;;;;;36.73;30.64;100439.09;146630;667;46010;-77
2022/08/18 08:51:58;;;;;;;;;8.25;7.25;;;;;37.56;29.62;100559.16;146630;602;45914;-79
2022/08/18 08:55:03;;;;;;;;;7.75;6.25;;;;;37.62;27.13;100561.47;146631;565;44020;-78
2022/08/18 08:58:47;;;;;;;;;7.25;5.25;;;;;36.82;28.81;100426.84;146625;610;46014;-79
2022/08/18 09:02:29;;;;;;;;;8.50;7.50;;;;;37.58;30.26;100559.94;146630;598;45014;-78
2022/08/18 09:05:50;;;;;;;;;;;;;;;;;;;;;
2022/08/18 09:09:37;;;;;;;;;7.50;6.25;;;;;37.90;29.67;100559.66;146627;666;45021;-78
2022/08/18 09:13:27;;;;;;;;;8.00;8.00;;;;;37.24;30.39;100419.72;146627;618;45912;-78
2022/08/18 09:16:59;;;;;;;;;7.25;7.25;;;;;38.01;28.04;100535.50;146630;617;45010;-80
2022/08/18 09:20:36;;;;;;;;;7.00;6.00;;;;;38.18;29.93;100557.88;146630;735;45912;-78
2022/08/18 09:23:58;;;;;;;;;7.50;7.50;;;;;38.28;29.38;100550.84;146632;564;44031;-78
2022/08/18 09:27:33;;;;;;;;;8.00;7.25;;;;;37.64;29.72;100429.66;146628;629;44914;-78
2022/08/18 09:31:11;;;;;;;;;8.75;8.25;;;;;38.44;28.30;100554.28;146631;570;45021;-79
2022/08/18 09:34:47;;;;;;;;;7.50;7.50;;;;;38.48;30.12;100546.84;146628;583;44913;-78
2022/08/18 09:41:44;;;;;;;;;9.25;8.00;;;;;37.92;28.72;100417.03;146629;604;44913;-77
2022/08/18 09:45:36;;;;;;;;;11.00;9.25;;;;;38.02;28.72;100406.44;146630;565;44915;-76
2022/08/18 09:49:03;;;;;;;;;9.50;7.75;;;;;38.96;26.11;100548.00;146625;563;46014;-80
2022/08/18 09:52:25;;;;;;;;;7.50;7.50;;;;;39.00;27.38;100545.94;146632;607;44021;-78
2022/08/18 09:56:06;;;;;;;;;12.25;11.50;;;;;38.22;28.58;100415.88;146627;600;45912;-77
2022/08/18 09:59:04;;;;;;;;;10.25;10.25;;;;;38.98;27.87;100531.66;146633;585;45010;-78
2022/08/18 10:02:05;;;;;;;;;15.75;15.75;;;;;39.09;26.05;100537.16;146624;611;47490;-78
2022/08/18 10:05:43;;;;;;;;;11.00;10.50;;;;;38.37;30.56;100403.97;146629;579;44914;-77
2022/08/18 10:09:07;;;;;;;;;;;;;;;;;;;;;
2022/08/18 10:12:38;;;;;;;;;10.75;10.00;;;;;38.88;30.79;100526.00;146603;635;46912;-76
2022/08/18 10:16:08;;;;;;;;;9.75;9.00;;;;;38.15;29.25;100399.19;146601;570;45915;-78
2022/08/18 10:19:32;;;;;;;;;14.75;13.00;;;;;38.93;28.82;100521.13;146603;583;45020;-77
2022/08/18 10:22:53;;;;;;;;;8.50;8.50;;;;;38.36;28.63;100403.13;146601;577;46013;-77
2022/08/18 10:25:49;;;;;;;;;13.00;12.50;;;;;39.16;25.91;100526.72;146606;569;45020;-77
2022/08/18 10:29:01;;;;;;;;;17.75;17.00;;;;;39.23;26.82;100519.91;146602;599;45915;-79
2022/08/18 10:32:38;;;;;;;;;16.50;13.75;;;;;38.84;28.32;100437.75;146604;583;46014;-78
2022/08/18 10:36:03;;;;;;;;;11.00;10.75;;;;;38.64;28.17;100397.63;146602;630;45914;-78
2022/08/18 10:39:05;;;;;;;;;14.75;13.00;;;;;39.41;25.82;100518.63;146606;625;45020;-78
2022/08/18 10:42:27;;;;;;;;;9.25;9.25;;;;;39.48;27.38;100522.59;146602;611;45914;-77
2022/08/18 10:45:48;;;;;;;;;13.00;11.00;;;;;39.53;27.15;100510.53;146605;586;45021;-78
2022/08/18 10:48:43;;;;;;;;;10.50;10.50;;;;;39.49;24.50;100516.19;146601;742;46012;-77
2022/08/18 10:52:25;;;;;;;;;10.00;9.25;;;;;39.14;27.70;100442.78;146604;581;45021;-77
2022/08/18 10:55:51;;;;;;;;;9.50;8.75;;;;;39.61;26.96;100511.72;146602;589;45910;-78
2022/08/18 10:59:19;;;;;;;;;13.00;11.00;;;;;39.57;26.51;100502.06;146605;581;46014;-77
2022/08/18 11:02:47;;;;;;;;;9.75;8.25;;;;;39.51;24.14;100502.53;146601;571;45910;-77
2022/08/18 11:05:48;;;;;;;;;10.00;9.50;;;;;39.42;24.73;100498.63;146604;624;45021;-79
2022/08/18 11:09:01;;;;;;;;;9.75;8.00;;;;;39.37;25.56;100495.38;146603;583;45912;-78
2022/08/18 11:12:03;;;;;;;;;8.75;7.25;;;;;39.41;24.89;100496.03;146605;599;45020;-78
2022/08/18 11:15:15;;;;;;;;;8.00;8.00;;;;;39.48;27.35;100491.91;146601;586;46863;-77
2022/08/18 11:19:00;;;;;;;;;;;;;;;;;;;;;
2022/08/18 11:22:05;;;;;;;;;8.00;8.00;;;;;39.34;29.31;100492.88;146602;636;45913;-78
2022/08/18 11:24:58;;;;;;;;;9.50;9.00;;;;;39.13;23.51;100489.88;146600;707;46010;-78
2022/08/18 11:27:57;;;;;;;;;9.00;8.00;;;;;39.03;25.72;100478.81;146602;578;45913;-78
2022/08/18 11:30:57;;;;;;;;;9.00;8.75;;;;;39.07;25.59;100487.63;146606;605;45023;-78
2022/08/18 11:33:57;;;;;;;;;10.00;9.50;;;;;39.13;24.69;100475.44;146602;594;45913;-78
2022/08/18 11:36:59;;;;;;;;;8.75;7.50;;;;;39.12;22.23;100471.00;146606;565;46014;-77
2022/08/18 11:39:58;;;;;;;;;9.00;8.00;;;;;39.06;23.60;100474.16;146602;565;45912;-77
2022/08/18 11:43:30;;;;;;;;;7.75;7.50;;;;;39.01;24.92;100472.66;146605;569;46014;-77
2022/08/18 11:46:48;;;;;;;;;9.00;8.00;;;;;38.21;27.11;100346.47;146603;572;45912;-76
2022/08/18 11:50:09;;;;;;;;;8.00;7.75;;;;;38.20;24.94;100340.19;146606;624;46015;-76
2022/08/18 11:53:33;;;;;;;;;6.25;6.25;;;;;39.01;26.28;100466.38;146602;648;45912;-74
2022/08/18 11:56:45;;;;;;;;;0.00;0.00;;;;;39.19;25.89;100464.13;146605;589;45021;-77
2022/08/18 11:59:38;;;;;;;;;7.00;6.75;;;;;39.33;24.14;100468.59;146601;572;46012;-76
2022/08/18 12:02:34;;;;;;;;;8.75;8.25;;;;;39.31;26.99;100468.69;146606;595;45020;-78
2022/08/18 12:05:27;;;;;;;;;7.00;6.00;;;;;39.31;23.95;100465.13;146602;564;45912;-75
2022/08/18 12:08:41;;;;;;;;;7.00;6.25;;;;;38.54;25.79;100322.44;146606;573;45020;-76
2022/08/18 12:11:55;;;;;;;;;9.50;9.50;;;;;39.30;24.19;100442.56;146602;590;46012;-74
2022/08/18 12:15:37;;;;;;;;;8.50;7.25;;;;;39.32;25.80;100456.91;146607;637;45021;-76
2022/08/18 12:18:36;;;;;;;;;8.50;7.50;;;;;39.16;24.63;100442.66;146603;625;45912;-77
2022/08/18 12:21:28;;;;;;;;;8.25;8.00;;;;;39.01;24.15;100445.53;146606;597;45021;-78
2022/08/18 12:24:36;;;;;;;;;7.00;7.00;;;;;38.85;26.99;100436.78;146603;564;45912;-76
2022/08/18 12:27:33;;;;;;;;;8.00;6.75;;;;;38.75;26.36;100432.94;146605;616;45021;-75
2022/08/18 12:30:35;;;;;;;;;7.75;7.75;;;;;38.74;26.59;100421.25;146602;584;45912;-77
2022/08/18 12:33:27;;;;;;;;;10.00;10.00;;;;;38.83;25.16;100425.12;146606;609;46015;-77
2022/08/18 12:36:37;;;;;;;;;6.25;6.00;;;;;38.11;25.51;100303.78;146601;640;45913;-77
2022/08/18 12:39:43;;;;;;;;;6.00;6.00;;;;;38.26;26.74;100322.66;146605;617;45020;-76
2022/08/18 12:42:55;;;;;;;;;6.25;5.75;;;;;38.85;26.12;100417.81;146602;619;45913;-78
2022/08/18 12:46:01;;;;;;;;;7.25;6.75;;;;;38.01;24.81;100288.28;146606;678;46010;-76
2022/08/18 12:49:17;;;;;;;;;8.25;7.25;;;;;38.61;25.76;100387.00;146603;613;45913;-76
2022/08/18 12:52:16;;;;;;;;;7.25;7.25;;;;;38.45;26.14;100403.50;146606;600;45020;-77
2022/08/18 12:55:13;;;;;;;;;9.00;9.00;;;;;38.39;24.74;100410.19;146602;612;45912;-78
2022/08/18 12:58:17;;;;;;;;;8.50;8.00;;;;;38.31;23.74;100407.13;146604;570;46010;-74
2022/08/18 13:01:22;;;;;;;;;;;;;;;;;;;;;
2022/08/18 13:04:21;;;;;;;;;6.50;6.50;;;;;37.96;24.81;100396.91;146602;614;47011;-75
2022/08/18 13:07:18;;;;;;;;;7.00;7.00;;;;;37.86;24.36;100406.59;146602;624;45912;-77
2022/08/18 13:10:25;;;;;;;;;10.25;9.25;;;;;37.88;27.05;100415.44;146603;570;46918;-77
2022/08/18 13:13:32;;;;;;;;;10.00;9.25;;;;;38.02;26.52;100406.44;146604;611;45017;-75
2022/08/18 13:16:40;;;;;;;;;;;;;;;;;;;;;
2022/08/18 13:19:39;;;;;;;;;7.00;7.00;;;;;38.34;26.20;100388.81;146601;620;46012;-76
2022/08/18 13:22:59;;;;;;;;;6.00;6.00;;;;;38.43;25.19;100398.16;146605;600;46010;-77
2022/08/18 13:26:27;;;;;;;;;4.50;4.00;;;;;38.48;26.61;100397.84;146599;613;47017;-76
2022/08/18 13:29:29;;;;;;;;;6.00;6.00;;;;;38.52;25.75;100394.81;146604;589;45020;-75
2022/08/18 13:32:25;;;;;;;;;8.00;8.00;;;;;38.53;25.61;100393.81;146601;617;46012;-76
2022/08/18 13:35:33;;;;;;;;;6.75;6.25;;;;;38.55;26.35;100389.19;146606;600;46014;-77
2022/08/18 13:38:33;;;;;;;;;7.25;7.25;;;;;38.57;25.15;100383.66;146600;702;46914;-75
2022/08/18 13:41:29;;;;;;;;;7.00;7.00;;;;;38.50;26.06;100380.50;146607;589;45021;-75
2022/08/18 13:44:25;;;;;;;;;8.50;8.50;;;;;38.43;25.14;100373.78;146602;575;46012;-75
2022/08/18 13:47:31;;;;;;;;;7.75;7.75;;;;;38.37;25.76;100374.19;146606;654;46015;-76
2022/08/18 13:50:40;;;;;;;;;7.00;6.25;;;;;38.32;27.84;100377.25;146601;569;46014;-77
2022/08/18 13:53:43;;;;;;;;;7.00;7.00;;;;;38.31;26.08;100377.34;146607;613;46010;-73
2022/08/18 13:56:45;;;;;;;;;8.25;7.25;;;;;38.34;26.58;100380.69;146604;603;45914;-73
2022/08/18 13:59:52;;;;;;;;;10.50;10.50;;;;;38.30;25.78;100372.91;146605;602;45020;-74
2022/08/18 14:03:02;;;;;;;;;;;;;;;;;;;;;
2022/08/18 14:06:07;;;;;;;;;9.00;8.00;;;;;38.04;25.97;100372.87;146604;606;46010;-73
2022/08/18 14:09:03;;;;;;;;;8.00;8.00;;;;;37.96;26.71;100367.13;146603;563;45914;-74
2022/08/18 14:12:05;;;;;;;;;7.75;7.00;;;;;37.84;25.81;100362.50;146607;569;45030;-75
2022/08/18 14:14:59;;;;;;;;;9.75;9.75;;;;;37.72;27.04;100369.63;146602;593;46010;-74
2022/08/18 14:17:57;;;;;;;;;7.75;7.00;;;;;37.66;26.47;100373.59;146607;662;45021;-74
2022/08/18 14:27:34;;;;;;;;;6.00;6.00;;;;;36.60;27.39;100243.66;146601;627;46013;-71
2022/08/18 14:30:40;;;;;;;;;4.50;4.50;;;;;37.23;29.03;100375.59;146603;582;46010;-72
2022/08/18 14:33:36;;;;;;;;;5.50;5.50;;;;;37.17;28.46;100382.25;146603;569;45915;-71
2022/08/18 14:36:38;;;;;;;;;7.50;6.50;;;;;37.10;27.06;100390.84;146605;563;46010;-70
2022/08/18 14:39:43;;;;;;;;;;;;;;;;;;;;;
2022/08/18 14:42:42;;;;;;;;;8.75;8.75;;;;;36.97;31.38;100379.94;146605;614;46008;-73
2022/08/18 14:45:48;;;;;;;;;9.00;9.00;;;;;36.91;30.51;100385.75;146602;569;46012;-72
2022/08/18 14:48:45;;;;;;;;;9.25;9.00;;;;;36.83;33.23;100382.69;146606;570;45021;-71
2022/08/18 14:51:48;;;;;;;;;7.50;7.50;;;;;36.72;34.18;100395.00;146602;663;45914;-71
2022/08/18 14:54:43;;;;;;;;;13.75;12.00;;;;;36.53;34.82;100392.59;146606;579;45021;-71
2022/08/18 14:57:36;;;;;;;;;11.75;10.75;;;;;36.27;35.14;100390.63;146603;586;45914;-72
2022/08/18 15:00:31;;;;;;;;;15.50;13.75;;;;;36.09;35.55;100389.91;146603;595;45020;-71
2022/08/18 15:03:29;;;;;;;;;8.75;8.25;;;;;36.02;33.68;100388.50;146604;571;45915;-72
2022/08/18 15:06:32;;;;;;;;;;;;;;;;;;;;;
2022/08/18 15:09:31;;;;;;;;;11.25;11.25;;;;;35.87;33.00;100389.44;146602;648;45912;-72
2022/08/18 15:12:25;;;;;;;;;7.75;7.75;;;;;35.84;32.22;100391.34;146632;567;44050;-71
2022/08/18 15:15:32;;;;;;;;;10.25;9.50;;;;;35.75;32.08;100388.31;146629;604;44915;-71
2022/08/18 15:18:30;;;;;;;;;9.50;8.50;;;;;35.64;33.30;100388.97;146633;614;44915;-71
2022/08/18 15:28:04;;;;;;;;;11.00;11.00;;;;;35.40;33.67;100383.13;146629;584;44913;-71
2022/08/18 15:31:00;;;;;;;;;9.25;9.25;;;;;35.43;34.17;100384.78;146631;592;44914;-69